This is the latest recevied weather packets stored in our database for station/object KE1THD. If no packets are shown the sender has not sent any weather packets the latest 10 day(s).
| Time | Temp. | Humidity | Pressure | Rain* | Wind** | Luminosity | Snow |
|---|---|---|---|---|---|---|---|
| 1777669890 | 12.78° C | 47% | 1016.7 hPa | 0 mm | - | 509 W/m² | - |
| 1777669586 | 12.22° C | 50% | 1016.8 hPa | 0 mm | - | 540 W/m² | - |
| 1777669283 | 12.22° C | 49% | 1016.8 hPa | 0 mm | - | 636 W/m² | - |
| 1777668980 | 12.22° C | 49% | 1016.9 hPa | 0 mm | - | 268 W/m² | - |
| 1777668677 | 12.22° C | 49% | 1017.1 hPa | 0 mm | - | 647 W/m² | - |
| 1777668374 | 11.67° C | 51% | 1017.1 hPa | 0 mm | - | 276 W/m² | - |
| 1777668070 | 11.67° C | 51% | 1017.2 hPa | 0 mm | - | 232 W/m² | - |
| 1777667766 | 11.11° C | 51% | 1017 hPa | 0 mm | - | 242 W/m² | - |
| 1777667464 | 11.67° C | 51% | 1017.1 hPa | 0 mm | - | 193 W/m² | - |
| 1777667161 | 11.67° C | 50% | 1017.2 hPa | 0 mm | - | 185 W/m² | - |
| 1777666857 | 12.22° C | 50% | 1017.3 hPa | 0 mm | - | 267 W/m² | - |
| 1777666555 | 12.22° C | 50% | 1017.4 hPa | 0 mm | - | 252 W/m² | - |
| 1777666251 | 13.33° C | 46% | 1017.4 hPa | 0 mm | - | 387 W/m² | - |
| 1777665948 | 12.78° C | 49% | 1017.5 hPa | 0 mm | - | 289 W/m² | - |
| 1777665645 | 11.67° C | 49% | 1017.3 hPa | 0 mm | - | 337 W/m² | - |
| 1777665343 | 11.67° C | 51% | 1017.3 hPa | 0 mm | - | 422 W/m² | - |
| 1777665038 | 12.22° C | 50% | 1017.2 hPa | 0 mm | - | 343 W/m² | - |
| 1777664734 | 11.67° C | 49% | 1017.3 hPa | 0 mm | - | 338 W/m² | - |
| 1777664430 | 12.22° C | 48% | 1017.3 hPa | 0 mm | - | 361 W/m² | - |
| 1777664128 | 11.67° C | 48% | 1017.3 hPa | 0 mm | - | 443 W/m² | - |
| 1777663826 | 11.67° C | 49% | 1017.4 hPa | 0 mm | - | 445 W/m² | - |
| 1777663522 | 11.67° C | 50% | 1017.5 hPa | 0 mm | - | 280 W/m² | - |
| 1777663221 | 11.67° C | 49% | 1017.5 hPa | 0 mm | - | 310 W/m² | - |
| 1777662917 | 11.67° C | 49% | 1017.5 hPa | 0 mm | - | 373 W/m² | - |
| 1777662615 | 11.67° C | 49% | 1017.2 hPa | 0 mm | - | 308 W/m² | - |
* Rain latest hour (hover to see other rain measurements)
** Current wind speed in m/s (hover to see current wind gust speed)